createdAt,value
2023-04-24T00:00:18.653Z,100.00
2023-04-24T00:05:22.006Z,100.00
2023-04-24T00:10:24.961Z,100.00
2023-04-24T00:15:29.488Z,100.00
2023-04-24T00:20:33.425Z,100.00
2023-04-24T00:25:36.270Z,100.00
2023-04-24T00:30:40.414Z,100.00
2023-04-24T00:35:43.105Z,100.00
2023-04-24T00:40:48.699Z,100.00
2023-04-24T00:45:52.893Z,100.00
2023-04-24T00:50:55.800Z,100.00
2023-04-24T00:55:58.832Z,100.00
2023-04-24T01:01:03.580Z,100.00
2023-04-24T01:06:07.481Z,100.00
2023-04-24T01:11:10.208Z,100.00
2023-04-24T01:16:14.458Z,100.00
2023-04-24T01:21:18.366Z,100.00
2023-04-24T01:26:22.471Z,100.00
2023-04-24T01:31:25.438Z,100.00
2023-04-24T01:36:30.653Z,100.00
2023-04-24T01:41:35.659Z,100.00
2023-04-24T01:46:38.462Z,100.00
2023-04-24T01:51:41.255Z,100.00
2023-04-24T01:56:45.763Z,100.00
2023-04-24T02:01:48.553Z,100.00
2023-04-24T02:06:51.654Z,100.00
2023-04-24T02:11:55.941Z,100.00
2023-04-24T02:16:58.758Z,100.00
2023-04-24T02:22:01.925Z,100.00
2023-04-24T02:27:06.804Z,100.00
2023-04-24T02:32:12.450Z,100.00
2023-04-24T02:37:15.374Z,100.00
2023-04-24T02:42:20.987Z,100.00
2023-04-24T02:47:23.763Z,100.00
2023-04-24T02:52:26.632Z,100.00
2023-04-24T02:57:30.912Z,100.00
2023-04-24T03:02:33.799Z,100.00
2023-04-24T03:07:36.690Z,100.00
2023-04-24T03:12:40.854Z,100.00
2023-04-24T03:17:43.610Z,100.00
2023-04-24T03:22:46.486Z,100.00
2023-04-24T03:27:50.699Z,100.00
2023-04-24T03:33:05.236Z,100.00
2023-04-24T03:38:11.999Z,100.00
2023-04-24T03:43:31.367Z,100.00
2023-04-24T03:48:37.016Z,100.00
2023-04-24T03:53:40.026Z,100.00
2023-04-24T03:58:45.182Z,100.00
2023-04-24T04:03:48.364Z,100.00
2023-04-24T04:08:55.716Z,100.00
2023-04-24T04:13:59.896Z,100.00
2023-04-24T04:19:03.947Z,100.00
2023-04-24T04:24:08.266Z,100.00
2023-04-24T04:29:18.825Z,100.00
2023-04-24T04:34:24.625Z,100.00
2023-04-24T04:39:29.200Z,100.00
2023-04-24T04:44:43.817Z,100.00
2023-04-24T04:49:53.116Z,100.00
2023-04-24T04:55:01.216Z,100.00
2023-04-24T05:00:26.264Z,100.00
2023-04-24T05:05:29.922Z,100.00
2023-04-24T05:10:33.074Z,100.00
2023-04-24T05:15:37.935Z,100.00
2023-04-24T05:20:41.192Z,100.00
2023-04-24T05:25:44.204Z,100.00
2023-04-24T05:30:51.031Z,100.00
2023-04-24T05:35:58.068Z,100.00
2023-04-24T05:41:01.996Z,100.00
2023-04-24T05:46:06.332Z,100.00
2023-04-24T05:51:09.631Z,100.00
2023-04-24T05:56:12.730Z,100.00
2023-04-24T06:01:17.052Z,100.00
2023-04-24T06:06:23.722Z,100.00
2023-04-24T06:11:26.975Z,100.00
2023-04-24T06:16:33.551Z,100.00
2023-04-24T06:21:43.044Z,100.00
2023-04-24T06:26:47.881Z,99.59
2023-04-24T06:31:53.048Z,94.99
2023-04-24T06:36:56.945Z,94.86
2023-04-24T06:42:01.470Z,96.58
2023-04-24T06:47:05.771Z,91.61
2023-04-24T06:52:08.864Z,93.25
2023-04-24T06:57:13.631Z,94.61
2023-04-24T07:02:17.885Z,92.22
2023-04-24T07:07:21.513Z,92.56
2023-04-24T07:12:27.333Z,96.51
2023-04-24T07:17:31.597Z,96.89
2023-04-24T07:22:35.108Z,96.45
2023-04-24T07:27:38.004Z,91.78
2023-04-24T07:32:42.112Z,89.83
2023-04-24T07:37:47.117Z,90.93
2023-04-24T07:42:52.057Z,92.65
2023-04-24T07:47:57.314Z,93.64
2023-04-24T07:53:00.755Z,95.61
2023-04-24T07:58:04.128Z,98.81
2023-04-24T08:03:08.465Z,97.39
2023-04-24T08:08:11.902Z,98.87
2023-04-24T08:13:16.415Z,96.84
2023-04-24T08:18:21.606Z,98.91
2023-04-24T08:23:24.717Z,97.51
2023-04-24T08:28:27.748Z,100.00
2023-04-24T08:33:35.201Z,100.00
2023-04-24T08:38:40.213Z,100.00
2023-04-24T08:43:45.348Z,100.00
2023-04-24T08:48:54.116Z,100.00
2023-04-24T08:53:59.819Z,100.00
2023-04-24T08:59:03.854Z,100.00
2023-04-24T09:04:09.975Z,100.00
2023-04-24T09:09:13.550Z,100.00
2023-04-24T09:14:18.618Z,100.00
2023-04-24T09:19:23.476Z,100.00
2023-04-24T09:24:27.166Z,100.00
2023-04-24T09:29:31.194Z,100.00
2023-04-24T09:34:36.252Z,100.00
2023-04-24T09:39:41.240Z,100.00
2023-04-24T09:44:44.766Z,100.00
2023-04-24T09:49:49.173Z,100.00
2023-04-24T09:54:55.454Z,100.00
2023-04-24T10:00:01.818Z,100.00
2023-04-24T10:05:16.893Z,100.00
2023-04-24T10:10:20.994Z,100.00
2023-04-24T10:15:24.240Z,100.00
2023-04-24T10:20:32.091Z,100.00
2023-04-24T10:25:38.202Z,100.00
2023-04-24T10:30:44.848Z,100.00
2023-04-24T10:35:53.189Z,100.00
2023-04-24T10:41:08.517Z,100.00
2023-04-24T10:46:13.472Z,100.00
2023-04-24T10:51:20.135Z,100.00
2023-04-24T10:56:23.995Z,100.00
2023-04-24T11:01:28.381Z,100.00
2023-04-24T11:06:35.162Z,100.00
2023-04-24T11:11:41.082Z,100.00
2023-04-24T11:16:47.259Z,100.00
2023-04-24T11:22:01.328Z,100.00
2023-04-24T11:27:09.240Z,100.00
2023-04-24T11:32:29.205Z,100.00
2023-04-24T11:37:39.322Z,100.00
2023-04-24T11:42:45.379Z,100.00
2023-04-24T11:47:48.143Z,100.00
2023-04-24T11:52:54.267Z,100.00
2023-04-24T11:57:59.317Z,100.00
2023-04-24T12:03:10.669Z,100.00
2023-04-24T12:08:30.366Z,100.00
2023-04-24T12:13:33.656Z,100.00
2023-04-24T12:18:36.551Z,100.00
2023-04-24T12:23:42.532Z,100.00
2023-04-24T12:28:48.352Z,100.00
2023-04-24T12:33:54.291Z,100.00
2023-04-24T12:38:58.637Z,100.00
2023-04-24T12:44:01.948Z,100.00
2023-04-24T12:49:06.281Z,100.00
2023-04-24T12:54:14.412Z,100.00
2023-04-24T12:59:19.010Z,100.00
2023-04-24T13:04:22.412Z,100.00
2023-04-24T13:09:26.777Z,93.33
2023-04-24T13:14:30.327Z,81.13
2023-04-24T13:19:37.964Z,80.83
2023-04-24T13:24:44.421Z,85.49
2023-04-24T13:29:47.616Z,75.39
2023-04-24T13:34:52.645Z,71.31
2023-04-24T13:39:57.623Z,76.93
2023-04-24T13:45:06.111Z,82.93
2023-04-24T13:50:17.180Z,86.94
2023-04-24T13:55:21.409Z,85.91
2023-04-24T14:00:25.542Z,91.62
2023-04-24T14:05:28.409Z,91.03
2023-04-24T14:10:32.730Z,95.20
2023-04-24T14:15:38.976Z,97.88
2023-04-24T14:20:41.841Z,95.06
2023-04-24T14:25:46.857Z,95.20
2023-04-24T14:30:50.381Z,91.03
2023-04-24T14:35:54.398Z,88.47
2023-04-24T14:41:07.301Z,87.88
2023-04-24T14:46:10.944Z,90.75
2023-04-24T14:51:15.632Z,91.24
2023-04-24T14:56:22.747Z,90.91
2023-04-24T15:01:26.147Z,95.48
2023-04-24T15:06:32.435Z,97.27
2023-04-24T15:11:36.782Z,98.75
2023-04-24T15:16:42.207Z,95.64
2023-04-24T15:21:45.527Z,89.29
2023-04-24T15:26:50.760Z,95.19
2023-04-24T15:31:54.155Z,94.50
2023-04-24T15:36:57.447Z,97.18
2023-04-24T15:42:02.702Z,99.23
2023-04-24T15:47:06.449Z,100.00
2023-04-24T15:52:10.539Z,96.62
2023-04-24T15:57:14.704Z,65.46
2023-04-24T16:02:19.711Z,53.60
2023-04-24T16:07:25.993Z,61.88
2023-04-24T16:12:30.649Z,44.89
2023-04-24T16:17:35.605Z,38.53
2023-04-24T16:22:39.895Z,37.11
2023-04-24T16:27:45.509Z,40.56
2023-04-24T16:32:49.926Z,35.77
2023-04-24T16:37:53.256Z,35.77
2023-04-24T16:42:57.438Z,47.43
2023-04-24T16:48:00.583Z,52.63
2023-04-24T16:53:04.305Z,57.52
2023-04-24T16:58:09.519Z,64.17
2023-04-24T17:03:14.333Z,70.35
2023-04-24T17:08:19.451Z,78.43
2023-04-24T17:13:23.618Z,85.49
2023-04-24T17:18:28.304Z,89.17
2023-04-24T17:23:32.534Z,91.46
2023-04-24T17:28:37.187Z,92.55
2023-04-24T17:33:39.967Z,94.58
2023-04-24T17:38:43.332Z,95.17
2023-04-24T17:43:47.637Z,96.14
2023-04-24T17:48:51.205Z,98.24
2023-04-24T17:53:55.692Z,100.00
2023-04-24T17:59:01.611Z,100.00
2023-04-24T18:04:04.609Z,100.00
2023-04-24T18:09:09.234Z,100.00
2023-04-24T18:14:13.644Z,100.00
2023-04-24T18:19:18.798Z,100.00
2023-04-24T18:24:22.411Z,100.00
2023-04-24T18:29:26.499Z,100.00
2023-04-24T18:34:31.673Z,100.00
2023-04-24T18:39:36.664Z,100.00
2023-04-24T18:44:42.774Z,100.00
2023-04-24T18:49:46.220Z,100.00
2023-04-24T18:54:49.132Z,100.00
2023-04-24T18:59:53.866Z,100.00
2023-04-24T19:04:57.294Z,100.00
2023-04-24T19:10:01.886Z,100.00
2023-04-24T19:15:11.685Z,100.00
2023-04-24T19:20:14.553Z,100.00
2023-04-24T19:25:17.647Z,100.00
2023-04-24T19:30:21.843Z,100.00
2023-04-24T19:35:24.696Z,100.00
2023-04-24T19:40:27.668Z,100.00
2023-04-24T19:45:32.704Z,100.00
2023-04-24T19:50:36.002Z,100.00
2023-04-24T19:55:38.876Z,100.00
2023-04-24T20:00:44.911Z,100.00
2023-04-24T20:05:47.922Z,100.00
2023-04-24T20:10:50.886Z,100.00
2023-04-24T20:15:56.562Z,100.00
2023-04-24T20:21:00.132Z,100.00
2023-04-24T20:26:04.877Z,100.00
2023-04-24T20:31:09.750Z,100.00
2023-04-24T20:36:12.580Z,100.00
2023-04-24T20:41:15.991Z,100.00
2023-04-24T20:46:20.510Z,100.00
2023-04-24T20:51:23.476Z,100.00
2023-04-24T20:56:26.669Z,100.00
2023-04-24T21:01:31.194Z,100.00
2023-04-24T21:06:34.265Z,100.00
2023-04-24T21:11:37.393Z,100.00
2023-04-24T21:16:42.680Z,100.00
2023-04-24T21:21:46.355Z,100.00
2023-04-24T21:26:50.662Z,100.00
2023-04-24T21:31:55.649Z,100.00
2023-04-24T21:36:58.455Z,100.00
2023-04-24T21:42:01.202Z,100.00
2023-04-24T21:47:05.702Z,100.00
2023-04-24T21:52:08.782Z,100.00
2023-04-24T21:57:11.631Z,100.00
2023-04-24T22:02:16.048Z,100.00
2023-04-24T22:07:18.800Z,100.00
2023-04-24T22:12:21.615Z,100.00
2023-04-24T22:17:26.435Z,100.00
2023-04-24T22:22:29.535Z,100.00
2023-04-24T22:27:35.615Z,100.00
2023-04-24T22:32:40.045Z,100.00
2023-04-24T22:37:42.906Z,100.00
2023-04-24T22:42:45.691Z,100.00
2023-04-24T22:47:49.931Z,100.00
2023-04-24T22:52:54.187Z,100.00
2023-04-24T22:57:57.633Z,100.00
2023-04-24T23:03:01.942Z,100.00
2023-04-24T23:08:04.778Z,100.00
2023-04-24T23:13:07.572Z,100.00
2023-04-24T23:18:12.596Z,100.00
2023-04-24T23:23:16.058Z,100.00
2023-04-24T23:28:18.911Z,100.00
2023-04-24T23:33:23.302Z,100.00
2023-04-24T23:38:26.592Z,100.00
2023-04-24T23:43:31.416Z,100.00
2023-04-24T23:48:37.009Z,100.00
2023-04-24T23:53:39.883Z,100.00
2023-04-24T23:58:42.626Z,100.00
